sensor_id;sensor_type;location;lat;lon;timestamp;pressure;altitude;pressure_sealevel;temperature;humidity
22181;BME280;11256;50.830;12.834;2023-02-03T00:01:03;98257.50;;;3.61;78.58
22181;BME280;11256;50.830;12.834;2023-02-03T00:06:04;98240.16;;;3.64;78.43
22181;BME280;11256;50.830;12.834;2023-02-03T00:11:04;98233.38;;;3.61;78.44
22181;BME280;11256;50.830;12.834;2023-02-03T00:16:05;98243.44;;;3.66;78.86
22181;BME280;11256;50.830;12.834;2023-02-03T00:21:06;98234.81;;;3.64;78.42
22181;BME280;11256;50.830;12.834;2023-02-03T00:26:15;98226.19;;;3.62;78.42
22181;BME280;11256;50.830;12.834;2023-02-03T00:31:20;98217.09;;;3.63;78.38
22181;BME280;11256;50.830;12.834;2023-02-03T00:36:21;98206.84;;;3.60;78.30
22181;BME280;11256;50.830;12.834;2023-02-03T00:41:22;98195.50;;;3.58;78.46
22181;BME280;11256;50.830;12.834;2023-02-03T00:46:27;98193.28;;;3.55;78.48
22181;BME280;11256;50.830;12.834;2023-02-03T00:51:27;98189.56;;;3.56;78.41
22181;BME280;11256;50.830;12.834;2023-02-03T00:56:28;98183.00;;;3.52;78.43
22181;BME280;11256;50.830;12.834;2023-02-03T01:01:28;98176.03;;;3.51;78.12
22181;BME280;11256;50.830;12.834;2023-02-03T01:06:28;98160.38;;;3.48;78.30
22181;BME280;11256;50.830;12.834;2023-02-03T01:11:31;98148.03;;;3.47;78.25
22181;BME280;11256;50.830;12.834;2023-02-03T01:16:31;98128.25;;;3.48;78.20
22181;BME280;11256;50.830;12.834;2023-02-03T01:21:35;98102.81;;;3.39;78.32
22181;BME280;11256;50.830;12.834;2023-02-03T01:26:35;98104.00;;;3.43;78.18
22181;BME280;11256;50.830;12.834;2023-02-03T01:31:38;98083.63;;;3.42;78.20
22181;BME280;11256;50.830;12.834;2023-02-03T01:36:40;98092.25;;;3.44;78.24
22181;BME280;11256;50.830;12.834;2023-02-03T01:41:41;98077.81;;;3.45;78.48
22181;BME280;11256;50.830;12.834;2023-02-03T01:46:47;98072.19;;;3.35;78.54
22181;BME280;11256;50.830;12.834;2023-02-03T01:51:49;98063.31;;;3.34;78.96
22181;BME280;11256;50.830;12.834;2023-02-03T01:56:53;98079.31;;;3.41;78.71
22181;BME280;11256;50.830;12.834;2023-02-03T02:01:55;98059.97;;;3.39;79.41
22181;BME280;11256;50.830;12.834;2023-02-03T02:06:57;98036.94;;;3.38;79.03
22181;BME280;11256;50.830;12.834;2023-02-03T02:11:58;98049.25;;;3.39;78.99
22181;BME280;11256;50.830;12.834;2023-02-03T02:17:57;98057.31;;;3.39;79.68
22181;BME280;11256;50.830;12.834;2023-02-03T02:29:08;98044.63;;;3.46;80.37
22181;BME280;11256;50.830;12.834;2023-02-03T02:34:08;98049.06;;;3.52;80.95
22181;BME280;11256;50.830;12.834;2023-02-03T02:39:40;98034.19;;;3.56;81.58
22181;BME280;11256;50.830;12.834;2023-02-03T02:44:58;98019.88;;;3.62;82.25
22181;BME280;11256;50.830;12.834;2023-02-03T02:50:22;98018.84;;;3.63;83.13
22181;BME280;11256;50.830;12.834;2023-02-03T02:55:30;98022.13;;;3.65;82.46
22181;BME280;11256;50.830;12.834;2023-02-03T03:00:35;98009.88;;;3.69;83.17
22181;BME280;11256;50.830;12.834;2023-02-03T03:05:38;98002.91;;;3.68;83.28
22181;BME280;11256;50.830;12.834;2023-02-03T03:10:40;98019.94;;;3.85;83.97
22181;BME280;11256;50.830;12.834;2023-02-03T03:15:44;98003.28;;;3.83;84.12
22181;BME280;11256;50.830;12.834;2023-02-03T03:20:46;98012.03;;;3.90;84.87
22181;BME280;11256;50.830;12.834;2023-02-03T03:25:54;98012.75;;;3.97;84.56
22181;BME280;11256;50.830;12.834;2023-02-03T03:30:59;97998.53;;;3.96;84.88
22181;BME280;11256;50.830;12.834;2023-02-03T03:41:19;97986.19;;;4.07;84.45
22181;BME280;11256;50.830;12.834;2023-02-03T03:46:27;97994.34;;;4.12;84.47
22181;BME280;11256;50.830;12.834;2023-02-03T03:51:33;97986.31;;;4.12;85.02
22181;BME280;11256;50.830;12.834;2023-02-03T03:56:46;97994.81;;;4.20;85.10
22181;BME280;11256;50.830;12.834;2023-02-03T04:01:49;97975.25;;;4.20;85.63
22181;BME280;11256;50.830;12.834;2023-02-03T04:06:52;97971.50;;;4.32;86.19
22181;BME280;11256;50.830;12.834;2023-02-03T04:11:52;97936.28;;;4.29;85.93
22181;BME280;11256;50.830;12.834;2023-02-03T04:17:02;97928.25;;;4.29;85.76
22181;BME280;11256;50.830;12.834;2023-02-03T04:22:02;97917.84;;;4.32;85.93
22181;BME280;11256;50.830;12.834;2023-02-03T04:27:02;97905.84;;;4.35;86.41
22181;BME280;11256;50.830;12.834;2023-02-03T04:32:03;97890.34;;;4.37;86.49
22181;BME280;11256;50.830;12.834;2023-02-03T04:37:03;97897.44;;;4.43;86.35
22181;BME280;11256;50.830;12.834;2023-02-03T04:42:04;97910.63;;;4.44;87.01
22181;BME280;11256;50.830;12.834;2023-02-03T04:47:04;97927.41;;;4.51;87.05
22181;BME280;11256;50.830;12.834;2023-02-03T04:52:05;97932.16;;;4.61;86.64
22181;BME280;11256;50.830;12.834;2023-02-03T04:57:05;97944.53;;;4.62;86.63
22181;BME280;11256;50.830;12.834;2023-02-03T05:02:05;97926.78;;;4.61;86.27
22181;BME280;11256;50.830;12.834;2023-02-03T05:07:08;97909.75;;;4.67;86.28
22181;BME280;11256;50.830;12.834;2023-02-03T05:12:08;97946.38;;;4.73;86.41
22181;BME280;11256;50.830;12.834;2023-02-03T05:17:09;97911.75;;;4.71;86.90
22181;BME280;11256;50.830;12.834;2023-02-03T05:22:09;97906.72;;;4.75;86.74
22181;BME280;11256;50.830;12.834;2023-02-03T05:27:09;97895.47;;;4.78;86.65
22181;BME280;11256;50.830;12.834;2023-02-03T05:32:10;97884.94;;;4.88;86.70
22181;BME280;11256;50.830;12.834;2023-02-03T05:37:10;97864.75;;;4.85;86.88
22181;BME280;11256;50.830;12.834;2023-02-03T05:42:10;97857.63;;;4.91;87.25
22181;BME280;11256;50.830;12.834;2023-02-03T05:47:11;97859.38;;;4.85;87.70
22181;BME280;11256;50.830;12.834;2023-02-03T05:52:11;97872.44;;;4.93;87.06
22181;BME280;11256;50.830;12.834;2023-02-03T05:57:11;97855.50;;;4.93;87.56
22181;BME280;11256;50.830;12.834;2023-02-03T06:02:12;97874.97;;;5.00;87.66
22181;BME280;11256;50.830;12.834;2023-02-03T06:07:12;97873.91;;;5.01;87.71
22181;BME280;11256;50.830;12.834;2023-02-03T06:12:14;97888.97;;;5.02;88.20
22181;BME280;11256;50.830;12.834;2023-02-03T06:17:14;97878.81;;;5.04;87.98
22181;BME280;11256;50.830;12.834;2023-02-03T06:22:14;97854.97;;;5.07;87.55
22181;BME280;11256;50.830;12.834;2023-02-03T06:27:15;97832.41;;;5.08;88.07
22181;BME280;11256;50.830;12.834;2023-02-03T06:32:15;97832.78;;;5.12;87.45
22181;BME280;11256;50.830;12.834;2023-02-03T06:37:16;97830.88;;;5.12;87.76
22181;BME280;11256;50.830;12.834;2023-02-03T06:42:17;97817.22;;;5.14;88.39
22181;BME280;11256;50.830;12.834;2023-02-03T06:47:17;97810.78;;;5.15;87.60
22181;BME280;11256;50.830;12.834;2023-02-03T06:52:18;97807.72;;;5.23;88.18
22181;BME280;11256;50.830;12.834;2023-02-03T06:57:18;97810.56;;;5.16;88.02
22181;BME280;11256;50.830;12.834;2023-02-03T07:02:19;97805.94;;;5.12;88.10
22181;BME280;11256;50.830;12.834;2023-02-03T07:07:19;97788.16;;;5.11;88.14
22181;BME280;11256;50.830;12.834;2023-02-03T07:12:20;97795.31;;;5.22;87.96
22181;BME280;11256;50.830;12.834;2023-02-03T07:17:20;97793.38;;;5.17;88.68
22181;BME280;11256;50.830;12.834;2023-02-03T07:22:20;97769.94;;;5.13;88.91
22181;BME280;11256;50.830;12.834;2023-02-03T07:27:21;97773.03;;;5.21;88.52
22181;BME280;11256;50.830;12.834;2023-02-03T07:32:21;97763.09;;;5.22;88.75
22181;BME280;11256;50.830;12.834;2023-02-03T07:37:21;97749.09;;;5.20;88.46
22181;BME280;11256;50.830;12.834;2023-02-03T07:42:22;97751.38;;;5.28;88.66
22181;BME280;11256;50.830;12.834;2023-02-03T07:47:24;97753.34;;;5.32;88.33
22181;BME280;11256;50.830;12.834;2023-02-03T07:52:25;97760.09;;;5.35;88.06
22181;BME280;11256;50.830;12.834;2023-02-03T07:57:26;97758.03;;;5.42;88.07
22181;BME280;11256;50.830;12.834;2023-02-03T08:02:26;97759.34;;;5.39;88.12
22181;BME280;11256;50.830;12.834;2023-02-03T08:07:26;97743.38;;;5.33;88.62
22181;BME280;11256;50.830;12.834;2023-02-03T08:12:27;97737.94;;;5.44;88.27
22181;BME280;11256;50.830;12.834;2023-02-03T08:17:27;97734.78;;;5.47;88.41
22181;BME280;11256;50.830;12.834;2023-02-03T08:22:27;97738.00;;;5.49;88.25
22181;BME280;11256;50.830;12.834;2023-02-03T08:27:30;97734.25;;;5.50;88.29
22181;BME280;11256;50.830;12.834;2023-02-03T08:32:31;97720.06;;;5.55;88.27
22181;BME280;11256;50.830;12.834;2023-02-03T08:37:32;97728.72;;;5.57;88.37
22181;BME280;11256;50.830;12.834;2023-02-03T08:42:33;97719.34;;;5.59;87.93
22181;BME280;11256;50.830;12.834;2023-02-03T08:47:34;97725.03;;;5.63;87.89
22181;BME280;11256;50.830;12.834;2023-02-03T08:52:36;97712.66;;;5.62;88.33
22181;BME280;11256;50.830;12.834;2023-02-03T08:57:36;97697.09;;;5.64;88.03
22181;BME280;11256;50.830;12.834;2023-02-03T09:02:37;97693.91;;;5.67;87.73
22181;BME280;11256;50.830;12.834;2023-02-03T09:07:37;97682.03;;;5.63;87.62
22181;BME280;11256;50.830;12.834;2023-02-03T09:12:37;97700.09;;;5.67;87.92
22181;BME280;11256;50.830;12.834;2023-02-03T09:17:38;97665.97;;;5.68;87.69
22181;BME280;11256;50.830;12.834;2023-02-03T09:22:38;97663.34;;;5.73;87.53
22181;BME280;11256;50.830;12.834;2023-02-03T09:27:38;97649.50;;;5.81;87.74
22181;BME280;11256;50.830;12.834;2023-02-03T09:32:39;97650.31;;;5.81;87.51
22181;BME280;11256;50.830;12.834;2023-02-03T09:37:39;97626.41;;;5.85;87.64
22181;BME280;11256;50.830;12.834;2023-02-03T09:47:43;97620.28;;;5.89;87.64
22181;BME280;11256;50.830;12.834;2023-02-03T09:52:44;97612.22;;;5.89;87.59
22181;BME280;11256;50.830;12.834;2023-02-03T09:57:50;97629.22;;;5.95;87.28
22181;BME280;11256;50.830;12.834;2023-02-03T10:03:10;97615.00;;;5.99;87.25
22181;BME280;11256;50.830;12.834;2023-02-03T10:08:41;97614.81;;;6.06;87.13
22181;BME280;11256;50.830;12.834;2023-02-03T10:18:53;97603.50;;;6.04;87.07
22181;BME280;11256;50.830;12.834;2023-02-03T10:23:55;97581.53;;;6.12;87.46
22181;BME280;11256;50.830;12.834;2023-02-03T10:29:02;97578.53;;;6.08;87.28
22181;BME280;11256;50.830;12.834;2023-02-03T10:34:11;97570.78;;;6.12;87.36
22181;BME280;11256;50.830;12.834;2023-02-03T10:39:33;97578.91;;;6.17;86.45
22181;BME280;11256;50.830;12.834;2023-02-03T10:44:41;97570.59;;;6.23;87.07
22181;BME280;11256;50.830;12.834;2023-02-03T10:49:43;97538.06;;;6.25;86.91
22181;BME280;11256;50.830;12.834;2023-02-03T10:54:44;97529.75;;;6.26;86.99
22181;BME280;11256;50.830;12.834;2023-02-03T10:59:46;97528.13;;;6.25;87.64
22181;BME280;11256;50.830;12.834;2023-02-03T11:04:46;97510.38;;;6.24;87.99
22181;BME280;11256;50.830;12.834;2023-02-03T11:09:47;97517.16;;;6.32;87.27
22181;BME280;11256;50.830;12.834;2023-02-03T11:14:50;97522.50;;;6.27;88.14
22181;BME280;11256;50.830;12.834;2023-02-03T11:19:52;97529.53;;;6.33;87.02
22181;BME280;11256;50.830;12.834;2023-02-03T11:24:53;97544.31;;;6.30;87.88
22181;BME280;11256;50.830;12.834;2023-02-03T11:30:18;97529.78;;;6.31;88.37
22181;BME280;11256;50.830;12.834;2023-02-03T11:35:23;97522.00;;;6.35;87.97
22181;BME280;11256;50.830;12.834;2023-02-03T11:40:29;97512.84;;;6.36;87.74
22181;BME280;11256;50.830;12.834;2023-02-03T11:45:38;97513.38;;;6.33;87.93
22181;BME280;11256;50.830;12.834;2023-02-03T11:50:46;97512.34;;;6.39;87.99
22181;BME280;11256;50.830;12.834;2023-02-03T11:56:04;97501.00;;;6.37;87.56
22181;BME280;11256;50.830;12.834;2023-02-03T12:06:54;97476.59;;;6.43;87.89
22181;BME280;11256;50.830;12.834;2023-02-03T12:12:06;97488.16;;;6.44;87.92
22181;BME280;11256;50.830;12.834;2023-02-03T12:17:21;97481.72;;;6.45;88.77
22181;BME280;11256;50.830;12.834;2023-02-03T12:28:16;97471.50;;;6.47;88.53
22181;BME280;11256;50.830;12.834;2023-02-03T12:33:30;97472.81;;;6.44;88.53
22181;BME280;11256;50.830;12.834;2023-02-03T12:38:37;97479.09;;;6.55;88.37
22181;BME280;11256;50.830;12.834;2023-02-03T12:43:42;97465.06;;;6.53;88.43
22181;BME280;11256;50.830;12.834;2023-02-03T12:48:58;97466.19;;;6.57;88.17
22181;BME280;11256;50.830;12.834;2023-02-03T12:59:28;97430.38;;;6.61;89.14
22181;BME280;11256;50.830;12.834;2023-02-03T13:04:43;97434.75;;;6.67;88.49
22181;BME280;11256;50.830;12.834;2023-02-03T13:14:58;97428.03;;;6.70;88.96
22181;BME280;11256;50.830;12.834;2023-02-03T13:20:14;97423.72;;;6.74;88.81
22181;BME280;11256;50.830;12.834;2023-02-03T13:25:46;97453.31;;;6.69;89.16
22181;BME280;11256;50.830;12.834;2023-02-03T13:31:11;97457.66;;;6.75;89.87
22181;BME280;11256;50.830;12.834;2023-02-03T13:42:07;97485.16;;;6.77;89.84
22181;BME280;11256;50.830;12.834;2023-02-03T13:47:18;97501.34;;;6.82;89.85
22181;BME280;11256;50.830;12.834;2023-02-03T13:52:44;97491.34;;;6.82;90.40
22181;BME280;11256;50.830;12.834;2023-02-03T13:57:50;97479.78;;;6.82;91.05
22181;BME280;11256;50.830;12.834;2023-02-03T14:02:52;97483.88;;;6.89;90.12
22181;BME280;11256;50.830;12.834;2023-02-03T14:07:53;97484.13;;;6.88;90.25
22181;BME280;11256;50.830;12.834;2023-02-03T14:12:56;97503.53;;;6.95;90.24
22181;BME280;11256;50.830;12.834;2023-02-03T14:18:03;97487.94;;;7.02;89.98
22181;BME280;11256;50.830;12.834;2023-02-03T14:28:09;97514.63;;;7.03;89.57
22181;BME280;11256;50.830;12.834;2023-02-03T14:33:11;97508.16;;;7.04;89.46
22181;BME280;11256;50.830;12.834;2023-02-03T14:38:13;97524.06;;;7.06;89.54
22181;BME280;11256;50.830;12.834;2023-02-03T14:59:36;97545.91;;;7.09;88.01
22181;BME280;11256;50.830;12.834;2023-02-03T15:04:37;97523.56;;;7.09;87.46
22181;BME280;11256;50.830;12.834;2023-02-03T15:09:43;97558.56;;;7.04;87.64
22181;BME280;11256;50.830;12.834;2023-02-03T15:14:47;97561.78;;;7.06;87.06
22181;BME280;11256;50.830;12.834;2023-02-03T15:19:48;97574.16;;;7.02;86.82
22181;BME280;11256;50.830;12.834;2023-02-03T15:24:51;97586.25;;;6.94;86.02
22181;BME280;11256;50.830;12.834;2023-02-03T15:29:53;97592.44;;;6.95;86.46
22181;BME280;11256;50.830;12.834;2023-02-03T15:34:54;97593.47;;;6.89;85.64
22181;BME280;11256;50.830;12.834;2023-02-03T15:40:00;97606.94;;;6.89;84.90
22181;BME280;11256;50.830;12.834;2023-02-03T15:45:25;97624.66;;;6.85;84.80
22181;BME280;11256;50.830;12.834;2023-02-03T15:50:49;97602.78;;;6.76;84.56
22181;BME280;11256;50.830;12.834;2023-02-03T15:55:58;97629.25;;;6.84;83.88
22181;BME280;11256;50.830;12.834;2023-02-03T16:01:03;97633.16;;;6.67;84.47
22181;BME280;11256;50.830;12.834;2023-02-03T16:11:24;97645.28;;;6.69;83.96
22181;BME280;11256;50.830;12.834;2023-02-03T16:21:51;97645.25;;;6.64;83.22
22181;BME280;11256;50.830;12.834;2023-02-03T16:26:52;97652.25;;;6.65;83.33
22181;BME280;11256;50.830;12.834;2023-02-03T16:31:53;97654.91;;;6.60;82.90
22181;BME280;11256;50.830;12.834;2023-02-03T16:37:30;97657.84;;;6.59;83.07
22181;BME280;11256;50.830;12.834;2023-02-03T16:42:49;97664.88;;;6.60;83.14
22181;BME280;11256;50.830;12.834;2023-02-03T16:48:10;97659.72;;;6.58;83.34
22181;BME280;11256;50.830;12.834;2023-02-03T16:53:31;97655.63;;;6.51;82.53
22181;BME280;11256;50.830;12.834;2023-02-03T16:58:32;97669.94;;;6.56;82.45
22181;BME280;11256;50.830;12.834;2023-02-03T17:03:34;97670.44;;;6.53;82.55
22181;BME280;11256;50.830;12.834;2023-02-03T17:08:36;97680.31;;;6.43;82.14
22181;BME280;11256;50.830;12.834;2023-02-03T17:13:36;97686.34;;;6.55;82.50
22181;BME280;11256;50.830;12.834;2023-02-03T17:18:37;97683.03;;;6.48;82.15
22181;BME280;11256;50.830;12.834;2023-02-03T17:23:39;97689.25;;;6.48;82.12
22181;BME280;11256;50.830;12.834;2023-02-03T17:28:39;97690.56;;;6.46;81.39
22181;BME280;11256;50.830;12.834;2023-02-03T17:33:42;97674.06;;;6.37;81.86
22181;BME280;11256;50.830;12.834;2023-02-03T17:38:45;97682.44;;;6.41;81.93
22181;BME280;11256;50.830;12.834;2023-02-03T17:43:47;97696.97;;;6.40;81.67
22181;BME280;11256;50.830;12.834;2023-02-03T17:48:48;97715.25;;;6.38;81.70
22181;BME280;11256;50.830;12.834;2023-02-03T17:53:48;97721.19;;;6.40;81.02
22181;BME280;11256;50.830;12.834;2023-02-03T17:58:54;97738.88;;;6.36;81.80
22181;BME280;11256;50.830;12.834;2023-02-03T18:03:57;97762.09;;;6.42;81.33
22181;BME280;11256;50.830;12.834;2023-02-03T18:08:58;97764.78;;;6.42;81.64
22181;BME280;11256;50.830;12.834;2023-02-03T18:14:01;97778.75;;;6.39;81.14
22181;BME280;11256;50.830;12.834;2023-02-03T18:19:04;97785.69;;;6.35;80.96
22181;BME280;11256;50.830;12.834;2023-02-03T18:24:05;97798.59;;;6.33;80.97
22181;BME280;11256;50.830;12.834;2023-02-03T18:29:05;97799.72;;;6.37;80.55
22181;BME280;11256;50.830;12.834;2023-02-03T18:34:06;97828.19;;;6.33;81.14
22181;BME280;11256;50.830;12.834;2023-02-03T18:39:07;97815.22;;;6.30;81.28
22181;BME280;11256;50.830;12.834;2023-02-03T18:44:08;97834.13;;;6.35;81.16
22181;BME280;11256;50.830;12.834;2023-02-03T18:49:10;97843.28;;;6.34;81.08
22181;BME280;11256;50.830;12.834;2023-02-03T18:54:11;97854.53;;;6.31;80.59
22181;BME280;11256;50.830;12.834;2023-02-03T18:59:11;97857.22;;;6.31;80.87
22181;BME280;11256;50.830;12.834;2023-02-03T19:04:12;97855.59;;;6.30;81.00
22181;BME280;11256;50.830;12.834;2023-02-03T19:09:14;97859.13;;;6.30;80.72
22181;BME280;11256;50.830;12.834;2023-02-03T19:14:16;97858.28;;;6.30;79.99
22181;BME280;11256;50.830;12.834;2023-02-03T19:19:16;97864.19;;;6.27;79.94
22181;BME280;11256;50.830;12.834;2023-02-03T19:24:16;97869.56;;;6.27;79.68
22181;BME280;11256;50.830;12.834;2023-02-03T19:29:18;97881.63;;;6.24;79.66
22181;BME280;11256;50.830;12.834;2023-02-03T19:34:18;97876.25;;;6.24;79.98
22181;BME280;11256;50.830;12.834;2023-02-03T19:39:19;97866.66;;;6.12;79.31
22181;BME280;11256;50.830;12.834;2023-02-03T19:44:20;97892.56;;;6.18;79.57
22181;BME280;11256;50.830;12.834;2023-02-03T19:49:20;97878.03;;;6.19;78.92
22181;BME280;11256;50.830;12.834;2023-02-03T19:54:21;97894.13;;;6.14;79.06
22181;BME280;11256;50.830;12.834;2023-02-03T19:59:21;97886.88;;;6.14;78.43
22181;BME280;11256;50.830;12.834;2023-02-03T20:04:21;97869.28;;;6.07;78.12
22181;BME280;11256;50.830;12.834;2023-02-03T20:09:22;97881.72;;;6.13;78.52
22181;BME280;11256;50.830;12.834;2023-02-03T20:14:22;97891.94;;;6.11;78.00
22181;BME280;11256;50.830;12.834;2023-02-03T20:19:22;97910.09;;;6.04;78.28
22181;BME280;11256;50.830;12.834;2023-02-03T20:24:23;97899.75;;;5.96;77.53
22181;BME280;11256;50.830;12.834;2023-02-03T20:29:24;97906.38;;;6.05;78.28
22181;BME280;11256;50.830;12.834;2023-02-03T20:34:24;97906.59;;;6.03;78.18
22181;BME280;11256;50.830;12.834;2023-02-03T20:39:26;97933.50;;;6.03;77.69
22181;BME280;11256;50.830;12.834;2023-02-03T20:44:27;97914.28;;;5.95;77.79
22181;BME280;11256;50.830;12.834;2023-02-03T20:49:27;97924.53;;;5.98;78.21
22181;BME280;11256;50.830;12.834;2023-02-03T20:54:28;97928.59;;;6.00;78.32
22181;BME280;11256;50.830;12.834;2023-02-03T20:59:29;97936.25;;;5.92;78.35
22181;BME280;11256;50.830;12.834;2023-02-03T21:04:30;97916.56;;;5.86;78.48
22181;BME280;11256;50.830;12.834;2023-02-03T21:09:52;97920.06;;;5.87;78.50
22181;BME280;11256;50.830;12.834;2023-02-03T21:14:53;97917.88;;;5.84;78.76
22181;BME280;11256;50.830;12.834;2023-02-03T21:19:54;97923.72;;;5.81;79.05
22181;BME280;11256;50.830;12.834;2023-02-03T21:24:56;97921.97;;;5.75;78.72
22181;BME280;11256;50.830;12.834;2023-02-03T21:30:00;97917.66;;;5.74;79.06
22181;BME280;11256;50.830;12.834;2023-02-03T21:35:01;97915.22;;;5.72;79.12
22181;BME280;11256;50.830;12.834;2023-02-03T21:40:16;97935.34;;;5.70;79.25
22181;BME280;11256;50.830;12.834;2023-02-03T21:55:30;97946.50;;;5.62;79.37
22181;BME280;11256;50.830;12.834;2023-02-03T22:00:40;97952.66;;;5.62;79.43
22181;BME280;11256;50.830;12.834;2023-02-03T22:05:48;97941.72;;;5.52;79.81
22181;BME280;11256;50.830;12.834;2023-02-03T22:10:48;97949.09;;;5.57;79.21
22181;BME280;11256;50.830;12.834;2023-02-03T22:15:49;97949.38;;;5.44;79.95
22181;BME280;11256;50.830;12.834;2023-02-03T22:20:49;97970.41;;;5.47;79.53
22181;BME280;11256;50.830;12.834;2023-02-03T22:25:50;97988.72;;;5.50;79.79
22181;BME280;11256;50.830;12.834;2023-02-03T22:30:51;98007.53;;;5.50;79.52
22181;BME280;11256;50.830;12.834;2023-02-03T22:35:51;98015.75;;;5.43;79.81
22181;BME280;11256;50.830;12.834;2023-02-03T22:40:52;98012.47;;;5.41;79.80
22181;BME280;11256;50.830;12.834;2023-02-03T22:45:53;98025.66;;;5.43;80.37
22181;BME280;11256;50.830;12.834;2023-02-03T22:50:54;98045.44;;;5.37;80.30
22181;BME280;11256;50.830;12.834;2023-02-03T22:55:55;98044.78;;;5.30;80.33
22181;BME280;11256;50.830;12.834;2023-02-03T23:00:55;98048.84;;;5.32;80.24
22181;BME280;11256;50.830;12.834;2023-02-03T23:05:56;98059.09;;;5.35;80.33
22181;BME280;11256;50.830;12.834;2023-02-03T23:10:56;98038.81;;;5.28;80.19
22181;BME280;11256;50.830;12.834;2023-02-03T23:15:56;98069.75;;;5.30;80.42
22181;BME280;11256;50.830;12.834;2023-02-03T23:20:57;98054.00;;;5.22;80.75
22181;BME280;11256;50.830;12.834;2023-02-03T23:25:57;98064.41;;;5.19;80.72
22181;BME280;11256;50.830;12.834;2023-02-03T23:30:58;98065.22;;;5.19;80.37
22181;BME280;11256;50.830;12.834;2023-02-03T23:35:58;98081.59;;;5.18;80.82
22181;BME280;11256;50.830;12.834;2023-02-03T23:40:58;98105.28;;;5.21;81.28
22181;BME280;11256;50.830;12.834;2023-02-03T23:45:58;98091.75;;;5.16;81.08
22181;BME280;11256;50.830;12.834;2023-02-03T23:50:59;98092.56;;;5.16;81.67
22181;BME280;11256;50.830;12.834;2023-02-03T23:55:59;98081.22;;;5.14;81.61
